Time;durP1;ratioP1;P1;durP2;ratioP2;P2;SDS_P1;SDS_P2;PMS_P1;PMS_P2;Temp;Humidity;BMP_temperature;BMP_pressure;BME280_temperature;BME280_humidity;BME280_pressure;Samples;Min_cycle;Max_cycle;Signal;HPM_P1;HPM_P2
2021/12/26 10:02:18;;;;;;;9.40;4.90;;;;;5.18;96712.80;;;;105251;1315;542130;-68
2021/12/26 10:04:51;;;;;;;10.70;5.60;;;;;5.30;96716.00;;;;108115;1290;41269;-61
2021/12/26 10:07:27;;;;;;;9.00;4.80;;;;;5.40;96712.20;;;;108149;1291;42294;-77
2021/12/26 10:10:06;;;;;;;9.70;4.90;;;;;5.40;96712.20;;;;107840;1290;40846;-75
2021/12/26 10:12:43;;;;;;;10.30;5.10;;;;;5.40;96724.20;;;;108032;1290;41298;-63
2021/12/26 10:15:14;;;;;;;9.60;5.10;;;;;5.48;96723.80;;;;107573;1288;691611;-69
2021/12/26 10:17:46;;;;;;;10.90;5.70;;;;;5.50;96717.40;;;;108114;1287;42392;-63
2021/12/26 10:20:16;;;;;;;;;;;;;5.50;96719.00;;;;108019;1288;41164;-62
2021/12/26 10:22:47;;;;;;;13.00;6.90;;;;;5.50;96723.20;;;;108026;1287;41163;-66
2021/12/26 10:25:20;;;;;;;14.50;7.60;;;;;5.50;96725.20;;;;108093;1288;41192;-73
2021/12/26 10:27:49;;;;;;;15.20;8.20;;;;;5.60;96723.40;;;;108189;1287;41415;-74
2021/12/26 10:30:24;;;;;;;16.30;8.70;;;;;5.60;96724.40;;;;108241;1287;41164;-74
2021/12/26 10:32:59;;;;;;;16.00;8.30;;;;;5.60;96728.20;;;;107857;1287;41170;-77
2021/12/26 10:35:30;;;;;;;15.60;9.10;;;;;5.60;96725.20;;;;108235;1287;41684;-76
2021/12/26 10:37:59;;;;;;;15.20;8.70;;;;;5.60;96723.40;;;;108087;1287;41144;-69
2021/12/26 10:40:33;;;;;;;13.80;7.80;;;;;5.60;96720.80;;;;108090;1288;41160;-70
2021/12/26 10:43:04;;;;;;;14.20;7.60;;;;;5.60;96731.00;;;;107998;1286;42223;-70
2021/12/26 10:45:35;;;;;;;14.40;7.90;;;;;5.60;96733.40;;;;108101;1287;41164;-60
2021/12/26 10:48:06;;;;;;;14.10;7.90;;;;;5.60;96734.20;;;;108126;1287;41268;-72
2021/12/26 10:50:40;;;;;;;16.00;9.00;;;;;5.60;96733.40;;;;108132;1287;42427;-67
2021/12/26 10:53:14;;;;;;;15.80;8.80;;;;;5.60;96735.20;;;;107873;1286;42411;-71
2021/12/26 10:55:51;;;;;;;15.30;8.50;;;;;5.60;96731.60;;;;108111;1287;41693;-62
2021/12/26 10:58:23;;;;;;;15.20;8.00;;;;;5.70;96731.60;;;;108132;1287;41856;-68
2021/12/26 11:00:56;;;;;;;14.30;8.10;;;;;5.70;96731.80;;;;108126;1288;41712;-69
2021/12/26 11:03:28;;;;;;;18.10;9.50;;;;;5.70;96729.60;;;;108249;1287;41649;-70
2021/12/26 11:06:06;;;;;;;13.50;7.30;;;;;5.70;96727.20;;;;108104;1287;41158;-71
2021/12/26 11:08:42;;;;;;;13.50;7.70;;;;;5.78;96729.60;;;;108128;1287;41185;-75
2021/12/26 11:11:16;;;;;;;15.80;8.20;;;;;5.80;96727.40;;;;108520;1278;41156;-74
2021/12/26 11:13:50;;;;;;;17.80;10.20;;;;;5.80;96723.20;;;;108486;1279;41639;-75
2021/12/26 11:16:18;;;;;;;15.50;8.70;;;;;5.82;96726.20;;;;108536;1280;41218;-67
2021/12/26 11:18:54;;;;;;;13.90;6.90;;;;;5.90;96723.80;;;;108522;1281;41154;-65
2021/12/26 11:21:23;;;;;;;13.20;6.60;;;;;5.90;96726.20;;;;108529;1281;42290;-68
2021/12/26 11:23:53;;;;;;;13.40;7.40;;;;;5.92;96725.40;;;;108559;1281;41384;-70
2021/12/26 11:26:22;;;;;;;13.10;7.10;;;;;6.00;96732.40;;;;108544;1276;41271;-72
2021/12/26 11:28:53;;;;;;;13.30;6.60;;;;;6.00;96742.20;;;;108564;1281;41138;-76
2021/12/26 11:31:28;;;;;;;12.10;6.30;;;;;6.00;96733.00;;;;108477;1281;43058;-66
2021/12/26 11:34:00;;;;;;;11.10;5.70;;;;;6.00;96726.20;;;;108565;1281;41465;-68
2021/12/26 11:36:32;;;;;;;9.50;4.90;;;;;6.10;96723.20;;;;108649;1278;42243;-62
2021/12/26 11:39:48;;;;;;;10.10;4.60;;;;;6.10;96719.80;;;;108644;1278;41139;-75
2021/12/26 11:43:20;;;;;;;10.00;5.10;;;;;6.20;96719.80;;;;108416;1278;41960;-70
2021/12/26 11:46:14;;;;;;;11.20;5.40;;;;;6.20;96727.80;;;;108681;1278;41258;-67
2021/12/26 11:49:18;;;;;;;8.80;4.30;;;;;6.30;96725.20;;;;108670;1278;42054;-70
2021/12/26 11:52:22;;;;;;;9.10;4.20;;;;;6.30;96732.20;;;;108678;1278;41252;-70
2021/12/26 11:55:34;;;;;;;8.60;4.30;;;;;6.26;96725.40;;;;108644;1278;41465;-65
2021/12/26 11:58:32;;;;;;;8.40;4.40;;;;;6.26;96732.80;;;;108490;1281;41157;-68
2021/12/26 12:01:02;;;;;;;8.30;3.90;;;;;6.30;96732.20;;;;108483;1281;41795;-67
2021/12/26 12:03:33;;;;;;;8.30;4.10;;;;;6.28;96741.20;;;;108482;1280;42187;-67
2021/12/26 12:06:02;;;;;;;;;;;;;6.30;96742.20;;;;108567;1277;41168;-69
2021/12/26 12:08:35;;;;;;;7.00;3.40;;;;;6.26;96747.80;;;;108501;1281;42379;-66
2021/12/26 12:11:08;;;;;;;7.60;3.70;;;;;6.30;96746.80;;;;108606;1278;41180;-70
2021/12/26 12:13:39;;;;;;;8.10;4.00;;;;;6.30;96750.00;;;;108565;1281;41261;-66
2021/12/26 12:16:11;;;;;;;8.50;4.30;;;;;6.30;96749.00;;;;108563;1280;41256;-69
2021/12/26 12:19:04;;;;;;;7.70;4.00;;;;;6.30;96745.60;;;;108558;1281;42627;-67
2021/12/26 12:21:37;;;;;;;8.30;3.90;;;;;6.30;96745.00;;;;108579;1278;41265;-67
2021/12/26 12:24:08;;;;;;;8.90;4.30;;;;;6.30;96742.40;;;;108444;1282;41153;-67
2021/12/26 12:26:50;;;;;;;9.30;4.70;;;;;6.30;96742.80;;;;108570;1277;41175;-69
2021/12/26 12:29:25;;;;;;;;;;;;;6.30;96741.00;;;;108840;1277;41346;-65
2021/12/26 12:32:06;;;;;;;10.10;5.00;;;;;6.20;96745.80;;;;108634;1277;41264;-70
2021/12/26 12:35:05;;;;;;;9.60;4.60;;;;;6.10;96747.80;;;;108730;1276;41261;-68
2021/12/26 12:37:45;;;;;;;11.20;5.30;;;;;6.10;96749.60;;;;108848;1277;42667;-71
2021/12/26 12:40:33;;;;;;;11.70;6.30;;;;;6.08;96749.20;;;;108824;1277;41154;-72
2021/12/26 12:43:09;;;;;;;13.00;6.30;;;;;6.00;96752.20;;;;108769;1277;41666;-72
2021/12/26 12:45:58;;;;;;;11.60;6.30;;;;;6.00;96754.40;;;;108783;1277;41193;-66
2021/12/26 12:48:32;;;;;;;13.80;7.10;;;;;6.00;96756.20;;;;108792;1277;41682;-67
2021/12/26 12:51:03;;;;;;;12.20;6.60;;;;;5.94;96753.80;;;;108797;1277;41164;-70
2021/12/26 12:53:40;;;;;;;12.50;7.20;;;;;5.90;96749.20;;;;108557;1277;41283;-72
2021/12/26 12:56:33;;;;;;;12.00;7.00;;;;;5.90;96753.80;;;;108832;1277;41668;-73
2021/12/26 12:59:20;;;;;;;12.50;6.60;;;;;5.82;96764.80;;;;108873;1276;41358;-68
2021/12/26 13:02:13;;;;;;;11.10;6.40;;;;;5.80;96765.80;;;;108844;1276;41700;-72
2021/12/26 13:04:47;;;;;;;11.80;6.40;;;;;5.80;96765.60;;;;108797;1278;41586;-73
2021/12/26 13:07:25;;;;;;;11.70;6.40;;;;;5.80;96765.00;;;;108847;1276;41132;-72
2021/12/26 13:10:09;;;;;;;13.60;6.80;;;;;5.80;96775.60;;;;108837;1277;41151;-69
2021/12/26 13:12:38;;;;;;;11.70;6.30;;;;;5.72;96775.80;;;;108854;1277;41253;-69
2021/12/26 13:15:08;;;;;;;11.70;6.50;;;;;5.72;96782.00;;;;108881;1276;41243;-71
2021/12/26 13:17:40;;;;;;;12.50;6.40;;;;;5.70;96786.60;;;;108885;1277;41603;-71
2021/12/26 13:20:12;;;;;;;12.30;6.20;;;;;5.72;96788.40;;;;108842;1278;41286;-70
2021/12/26 13:22:47;;;;;;;14.50;7.30;;;;;5.70;96790.80;;;;108890;1277;41172;-69
2021/12/26 13:25:32;;;;;;;14.00;7.20;;;;;5.70;96799.20;;;;108893;1275;42187;-71
2021/12/26 13:28:25;;;;;;;14.70;7.20;;;;;5.70;96801.40;;;;108847;1276;41799;-71
2021/12/26 13:31:10;;;;;;;11.70;6.30;;;;;5.70;96797.80;;;;108811;1277;42072;-72
2021/12/26 13:33:40;;;;;;;12.00;6.40;;;;;5.70;96796.20;;;;108894;1277;41239;-70
2021/12/26 13:36:11;;;;;;;16.00;6.70;;;;;5.70;96800.40;;;;108881;1277;41987;-71
2021/12/26 13:38:41;;;;;;;11.80;6.60;;;;;5.70;96803.40;;;;108875;1276;42148;-72
2021/12/26 13:41:16;;;;;;;13.10;7.00;;;;;5.70;96804.80;;;;108871;1276;41166;-72
2021/12/26 13:43:46;;;;;;;13.60;7.00;;;;;5.64;96804.40;;;;108892;1277;42065;-70
2021/12/26 13:46:18;;;;;;;14.90;6.60;;;;;5.60;96809.60;;;;108862;1276;41144;-72
2021/12/26 13:48:51;;;;;;;12.80;6.90;;;;;5.60;96813.60;;;;108846;1277;41186;-70
2021/12/26 13:51:31;;;;;;;13.70;7.10;;;;;5.60;96816.60;;;;108892;1277;41213;-70
2021/12/26 13:54:07;;;;;;;13.10;6.70;;;;;5.60;96819.40;;;;108857;1276;41710;-69
2021/12/26 13:57:04;;;;;;;17.80;8.50;;;;;5.60;96827.80;;;;108844;1275;41278;-72
2021/12/26 13:59:39;;;;;;;12.70;6.50;;;;;5.58;96828.80;;;;108838;1276;41377;-72
2021/12/26 14:02:13;;;;;;;12.90;6.50;;;;;5.52;96826.20;;;;108871;1277;42268;-73
2021/12/26 14:04:47;;;;;;;12.70;6.00;;;;;5.58;96824.80;;;;108863;1275;41935;-69
2021/12/26 14:07:18;;;;;;;12.60;6.30;;;;;5.60;96823.60;;;;108859;1277;41872;-70
2021/12/26 14:09:50;;;;;;;11.90;6.00;;;;;5.58;96824.20;;;;108762;1277;41165;-68
2021/12/26 14:12:32;;;;;;;10.30;5.10;;;;;5.60;96823.80;;;;108859;1276;41148;-71
2021/12/26 14:15:24;;;;;;;9.90;4.90;;;;;5.60;96825.80;;;;108912;1277;41151;-72
2021/12/26 14:17:56;;;;;;;9.50;4.90;;;;;5.60;96834.60;;;;108823;1277;41141;-72
2021/12/26 14:20:28;;;;;;;9.10;4.30;;;;;5.60;96836.60;;;;108863;1277;42011;-69
2021/12/26 14:22:57;;;;;;;;;;;;;5.60;96835.40;;;;108895;1275;41478;-71
2021/12/26 14:25:27;;;;;;;9.50;4.60;;;;;5.56;96832.60;;;;108822;1277;41735;-72
2021/12/26 14:27:56;;;;;;;9.00;4.50;;;;;5.50;96833.80;;;;108846;1276;41239;-72
2021/12/26 14:30:25;;;;;;;9.20;4.20;;;;;5.50;96832.40;;;;108868;1276;41149;-73
2021/12/26 14:32:59;;;;;;;8.90;4.00;;;;;5.50;96839.60;;;;108914;1276;41590;-70
2021/12/26 14:35:28;;;;;;;8.60;4.30;;;;;5.50;96838.80;;;;108883;1277;41127;-72
2021/12/26 14:38:12;;;;;;;9.10;4.70;;;;;5.50;96839.80;;;;108770;1277;41259;-73
2021/12/26 14:40:56;;;;;;;9.40;4.10;;;;;5.50;96843.00;;;;108895;1277;41252;-73
2021/12/26 14:43:26;;;;;;;8.40;4.10;;;;;5.40;96845.00;;;;108909;1277;41595;-70
2021/12/26 14:46:02;;;;;;;9.00;4.20;;;;;5.40;96844.60;;;;108884;1277;41253;-76
2021/12/26 14:48:42;;;;;;;8.10;3.90;;;;;5.40;96847.80;;;;108889;1275;42106;-68
2021/12/26 14:51:19;;;;;;;8.50;4.10;;;;;5.40;96850.20;;;;108905;1275;41866;-70
2021/12/26 14:54:01;;;;;;;13.80;6.50;;;;;5.40;96852.00;;;;108771;1277;41154;-68
2021/12/26 14:56:50;;;;;;;13.30;7.00;;;;;5.40;96852.80;;;;108871;1277;41154;-69
2021/12/26 14:59:24;;;;;;;11.80;5.90;;;;;5.40;96854.20;;;;108885;1275;41151;-70
2021/12/26 15:02:18;;;;;;;12.40;6.30;;;;;5.30;96858.20;;;;108852;1275;41717;-68
2021/12/26 15:04:50;;;;;;;11.70;5.90;;;;;5.26;96858.00;;;;108872;1275;41154;-69
2021/12/26 15:07:22;;;;;;;12.80;6.60;;;;;5.20;96863.40;;;;108842;1276;42053;-65
2021/12/26 15:09:54;;;;;;;18.70;9.70;;;;;5.10;96865.80;;;;108833;1275;41600;-73
2021/12/26 15:12:32;;;;;;;15.60;8.00;;;;;5.10;96864.80;;;;108864;1275;41136;-66
2021/12/26 15:15:11;;;;;;;16.30;8.70;;;;;5.02;96859.40;;;;108862;1275;41658;-71
2021/12/26 15:18:02;;;;;;;14.00;7.30;;;;;5.00;96857.80;;;;108897;1275;41158;-71
2021/12/26 15:20:38;;;;;;;15.30;8.10;;;;;4.90;96853.60;;;;108843;1277;41262;-72
2021/12/26 15:23:11;;;;;;;14.90;7.50;;;;;4.90;96858.80;;;;108859;1275;43008;-72
2021/12/26 15:25:50;;;;;;;13.50;7.50;;;;;4.80;96855.60;;;;108881;1275;41269;-73
2021/12/26 15:28:21;;;;;;;14.10;7.70;;;;;4.80;96860.80;;;;108881;1275;41608;-72
2021/12/26 15:31:14;;;;;;;13.90;6.60;;;;;4.70;96860.40;;;;108875;1274;41249;-71
2021/12/26 15:33:52;;;;;;;18.10;8.20;;;;;4.70;96863.60;;;;108838;1275;41248;-73
2021/12/26 15:36:27;;;;;;;16.10;8.20;;;;;4.60;96864.00;;;;108885;1277;41878;-72
2021/12/26 15:39:00;;;;;;;17.70;8.60;;;;;4.60;96865.60;;;;108939;1275;41175;-73
2021/12/26 15:41:32;;;;;;;13.30;7.70;;;;;4.50;96870.40;;;;108950;1275;42051;-72
2021/12/26 15:44:03;;;;;;;16.80;8.30;;;;;4.50;96876.60;;;;108863;1275;41138;-73
2021/12/26 15:46:38;;;;;;;13.90;7.40;;;;;4.50;96880.40;;;;108835;1277;41154;-74
2021/12/26 15:49:10;;;;;;;15.80;8.00;;;;;4.40;96885.60;;;;108879;1275;42235;-73
2021/12/26 15:51:39;;;;;;;15.00;8.00;;;;;4.40;96886.00;;;;108905;1276;41640;-72
2021/12/26 15:54:11;;;;;;;16.40;8.70;;;;;4.40;96890.00;;;;108892;1274;41253;-71
2021/12/26 15:56:42;;;;;;;15.30;8.20;;;;;4.40;96892.40;;;;108956;1274;41144;-72
2021/12/26 15:59:13;;;;;;;14.20;7.80;;;;;4.30;96888.80;;;;108879;1275;41753;-69
2021/12/26 16:01:43;;;;;;;16.50;8.60;;;;;4.30;96888.80;;;;108790;1276;41910;-71
2021/12/26 16:04:13;;;;;;;;;;;;;4.30;96886.80;;;;108850;1275;41254;-69
2021/12/26 16:06:44;;;;;;;13.50;7.30;;;;;4.30;96884.20;;;;108818;1276;41763;-70
2021/12/26 16:09:14;;;;;;;13.30;7.90;;;;;4.30;96889.40;;;;108852;1276;41941;-63
2021/12/26 16:11:43;;;;;;;16.90;8.70;;;;;4.30;96885.20;;;;108888;1275;41349;-72
2021/12/26 16:14:12;;;;;;;17.50;8.80;;;;;4.30;96885.20;;;;108807;1275;41781;-64
2021/12/26 16:16:42;;;;;;;15.70;8.90;;;;;4.30;96889.80;;;;108867;1277;42369;-72
2021/12/26 16:19:11;;;;;;;14.70;8.20;;;;;4.30;96890.80;;;;108895;1275;41325;-74
2021/12/26 16:21:41;;;;;;;15.40;8.50;;;;;4.30;96893.00;;;;108873;1275;41253;-70
2021/12/26 16:24:10;;;;;;;16.50;8.90;;;;;4.28;96892.00;;;;108861;1275;41261;-71
2021/12/26 16:26:39;;;;;;;18.30;9.80;;;;;4.30;96894.60;;;;108824;1275;41155;-71
2021/12/26 16:29:10;;;;;;;16.50;8.60;;;;;4.22;96897.20;;;;108897;1275;41145;-71
2021/12/26 16:31:39;;;;;;;17.30;8.90;;;;;4.20;96899.00;;;;108847;1275;41626;-72
2021/12/26 16:34:09;;;;;;;15.20;8.60;;;;;4.20;96898.00;;;;108898;1275;41165;-73
2021/12/26 16:36:38;;;;;;;13.00;7.00;;;;;4.20;96902.00;;;;108849;1275;41733;-72
2021/12/26 16:39:07;;;;;;;13.70;6.60;;;;;4.20;96899.00;;;;108777;1275;41148;-73
2021/12/26 16:41:36;;;;;;;15.00;7.40;;;;;4.20;96906.00;;;;108892;1275;41246;-74
2021/12/26 16:44:05;;;;;;;13.50;6.80;;;;;4.20;96908.20;;;;108908;1275;41132;-71
2021/12/26 16:46:34;;;;;;;14.30;7.30;;;;;4.30;96909.20;;;;108925;1275;41138;-70
2021/12/26 16:49:03;;;;;;;14.70;7.30;;;;;4.30;96913.60;;;;108925;1274;41282;-75
2021/12/26 16:51:35;;;;;;;13.80;6.80;;;;;4.30;96905.40;;;;108903;1274;42371;-72
2021/12/26 16:54:05;;;;;;;14.00;6.90;;;;;4.38;96907.20;;;;108836;1277;41161;-70
2021/12/26 16:56:34;;;;;;;12.90;7.10;;;;;4.40;96910.20;;;;108829;1277;41152;-69
2021/12/26 16:59:04;;;;;;;11.40;5.90;;;;;4.40;96908.40;;;;108849;1276;41150;-67
2021/12/26 17:01:33;;;;;;;13.50;5.90;;;;;4.46;96913.00;;;;108880;1277;42141;-63
2021/12/26 17:04:06;;;;;;;12.40;6.00;;;;;4.44;96910.40;;;;108888;1275;41146;-70
2021/12/26 17:06:35;;;;;;;12.40;6.30;;;;;4.42;96910.20;;;;108873;1275;41249;-64
2021/12/26 17:09:05;;;;;;;14.10;7.20;;;;;4.42;96915.80;;;;108853;1275;41600;-66
2021/12/26 17:11:34;;;;;;;13.10;6.30;;;;;4.40;96916.60;;;;108933;1274;41747;-68
2021/12/26 17:14:04;;;;;;;11.60;5.90;;;;;4.40;96914.40;;;;108824;1273;41256;-73
2021/12/26 17:16:33;;;;;;;12.00;6.30;;;;;4.40;96919.40;;;;108828;1275;41135;-65
2021/12/26 17:19:03;;;;;;;12.10;6.40;;;;;4.40;96922.40;;;;108898;1275;41144;-68
2021/12/26 17:21:34;;;;;;;12.10;6.50;;;;;4.44;96916.40;;;;108850;1275;41358;-67
2021/12/26 17:24:03;;;;;;;11.30;5.80;;;;;4.44;96926.00;;;;108868;1275;41913;-71
2021/12/26 17:26:33;;;;;;;11.20;5.70;;;;;4.40;96926.60;;;;108863;1275;41249;-65
2021/12/26 17:29:06;;;;;;;11.60;5.90;;;;;4.40;96928.80;;;;108796;1275;41139;-65
2021/12/26 17:31:35;;;;;;;11.30;5.20;;;;;4.40;96936.20;;;;108877;1275;42116;-70
2021/12/26 17:34:06;;;;;;;10.90;5.20;;;;;4.40;96939.20;;;;108856;1275;41863;-65
2021/12/26 17:36:35;;;;;;;13.40;6.20;;;;;4.40;96931.80;;;;108919;1275;41144;-70
2021/12/26 17:39:04;;;;;;;12.70;6.30;;;;;4.40;96924.60;;;;108869;1275;41785;-68
2021/12/26 17:41:34;;;;;;;13.50;6.50;;;;;4.40;96918.40;;;;108839;1277;41175;-68
2021/12/26 17:44:03;;;;;;;13.60;6.50;;;;;4.40;96926.40;;;;108882;1275;41482;-67
2021/12/26 17:46:32;;;;;;;16.90;9.30;;;;;4.40;96931.80;;;;108868;1277;41132;-65
2021/12/26 17:49:02;;;;;;;21.60;13.40;;;;;4.40;96933.60;;;;108876;1276;41659;-71
2021/12/26 17:51:31;;;;;;;14.00;7.70;;;;;4.48;96934.00;;;;108888;1276;41255;-69
2021/12/26 17:54:00;;;;;;;12.20;6.20;;;;;4.50;96940.00;;;;108871;1277;42293;-67
2021/12/26 17:56:29;;;;;;;11.90;6.20;;;;;4.50;96936.40;;;;108839;1276;41150;-69
2021/12/26 17:58:59;;;;;;;11.30;5.60;;;;;4.50;96936.20;;;;108871;1276;41207;-65
2021/12/26 18:01:28;;;;;;;10.20;4.90;;;;;4.54;96941.00;;;;108867;1276;41585;-67
2021/12/26 18:03:57;;;;;;;12.20;5.50;;;;;4.54;96937.60;;;;108893;1276;41258;-66
2021/12/26 18:06:26;;;;;;;11.20;5.40;;;;;4.60;96938.00;;;;108838;1276;41150;-69
2021/12/26 18:08:56;;;;;;;11.30;5.70;;;;;4.60;96936.20;;;;108879;1275;41773;-64
2021/12/26 18:11:25;;;;;;;12.00;5.50;;;;;4.60;96938.80;;;;108832;1277;41276;-69
2021/12/26 18:13:54;;;;;;;12.20;5.80;;;;;4.60;96937.20;;;;108877;1276;41253;-70
2021/12/26 18:16:23;;;;;;;11.90;5.90;;;;;4.60;96937.40;;;;108739;1274;236076;-68
2021/12/26 18:18:52;;;;;;;10.90;5.40;;;;;4.60;96938.40;;;;108856;1275;41892;-64
2021/12/26 18:21:21;;;;;;;10.50;5.50;;;;;4.60;96938.20;;;;108818;1277;41425;-70
2021/12/26 18:23:50;;;;;;;14.30;6.70;;;;;4.62;96948.40;;;;108846;1275;41244;-72
2021/12/26 18:26:20;;;;;;;13.60;6.90;;;;;4.60;96946.80;;;;108806;1275;41255;-66
2021/12/26 18:28:50;;;;;;;16.20;8.30;;;;;4.60;96957.80;;;;108834;1275;41746;-71
2021/12/26 18:31:22;;;;;;;17.30;8.30;;;;;4.60;96955.00;;;;108742;1275;41155;-70
2021/12/26 18:33:53;;;;;;;14.90;8.00;;;;;4.70;96957.20;;;;108858;1275;41255;-65
2021/12/26 18:36:24;;;;;;;11.90;6.30;;;;;4.70;96951.00;;;;108830;1274;41282;-65
2021/12/26 18:38:54;;;;;;;12.80;6.20;;;;;4.70;96957.00;;;;108823;1275;41142;-68
2021/12/26 18:41:23;;;;;;;13.90;7.50;;;;;4.70;96955.40;;;;108876;1276;41263;-64
2021/12/26 18:43:52;;;;;;;12.70;6.60;;;;;4.70;96954.80;;;;108852;1275;41235;-68
2021/12/26 18:46:28;;;;;;;12.40;6.00;;;;;4.70;96955.00;;;;108848;1277;41151;-70
2021/12/26 18:49:00;;;;;;;11.70;6.00;;;;;4.80;96954.40;;;;108839;1275;41177;-67
2021/12/26 18:51:29;;;;;;;10.90;5.30;;;;;4.76;96953.40;;;;108878;1275;41172;-72
2021/12/26 18:54:01;;;;;;;11.30;5.00;;;;;4.80;96947.60;;;;108835;1276;41322;-76
2021/12/26 18:56:30;;;;;;;12.10;5.70;;;;;4.80;96949.60;;;;108894;1274;41142;-74
2021/12/26 18:59:00;;;;;;;10.90;4.90;;;;;4.76;96946.40;;;;108922;1275;41187;-71
2021/12/26 19:01:31;;;;;;;10.20;5.10;;;;;4.76;96951.20;;;;108789;1277;41220;-68
2021/12/26 19:04:00;;;;;;;;;;;;;4.72;96955.40;;;;108829;1272;41253;-70
2021/12/26 19:06:32;;;;;;;12.20;5.40;;;;;4.70;96961.60;;;;108727;1277;41148;-64
2021/12/26 19:09:05;;;;;;;12.80;5.90;;;;;4.70;96958.80;;;;108654;1277;41196;-65
2021/12/26 19:11:35;;;;;;;12.30;6.10;;;;;4.70;96955.00;;;;108693;1277;41159;-70
2021/12/26 19:14:07;;;;;;;16.40;6.80;;;;;4.68;96957.60;;;;108809;1275;41508;-66
2021/12/26 19:16:38;;;;;;;13.70;7.20;;;;;4.60;96958.40;;;;108631;1277;41747;-67
2021/12/26 19:19:07;;;;;;;14.90;6.90;;;;;4.50;96961.00;;;;108715;1276;40754;-67
2021/12/26 19:21:37;;;;;;;13.20;7.30;;;;;4.44;96964.80;;;;108779;1277;41612;-63
2021/12/26 19:24:07;;;;;;;15.30;7.90;;;;;4.40;96967.40;;;;108745;1277;41143;-66
2021/12/26 19:26:36;;;;;;;19.80;9.70;;;;;4.30;96966.00;;;;108783;1275;41185;-65
2021/12/26 19:29:05;;;;;;;22.40;10.80;;;;;4.30;96973.60;;;;108851;1276;41608;-71
2021/12/26 19:31:35;;;;;;;17.50;9.00;;;;;4.20;96974.40;;;;108862;1276;41143;-64
2021/12/26 19:34:07;;;;;;;18.30;10.00;;;;;4.10;96976.60;;;;108728;1277;41148;-71
2021/12/26 19:36:37;;;;;;;21.30;10.60;;;;;4.10;96974.80;;;;108824;1276;41589;-66
2021/12/26 19:39:08;;;;;;;15.40;7.30;;;;;4.00;96976.00;;;;108806;1276;41718;-65
2021/12/26 19:41:41;;;;;;;13.20;6.60;;;;;4.00;96985.40;;;;108833;1276;41151;-71
2021/12/26 19:44:11;;;;;;;16.50;8.50;;;;;4.00;97001.60;;;;108763;1276;42334;-67
2021/12/26 19:46:41;;;;;;;14.50;8.00;;;;;4.00;96996.60;;;;108854;1275;41834;-72
2021/12/26 19:49:10;;;;;;;16.40;8.00;;;;;4.00;97000.00;;;;108824;1274;41182;-72
2021/12/26 19:51:41;;;;;;;38.90;21.70;;;;;4.00;96998.60;;;;108848;1276;41175;-68
2021/12/26 19:54:10;;;;;;;23.60;12.30;;;;;4.00;96996.00;;;;108671;1277;42605;-71
2021/12/26 19:56:40;;;;;;;16.60;9.00;;;;;4.00;96994.20;;;;108843;1277;41434;-70
2021/12/26 19:59:12;;;;;;;15.50;7.20;;;;;4.00;96991.00;;;;108759;1277;41147;-69
2021/12/26 20:01:44;;;;;;;12.80;6.50;;;;;4.00;96981.20;;;;108758;1275;41714;-65
2021/12/26 20:04:16;;;;;;;11.70;6.10;;;;;4.04;96980.60;;;;108773;1276;41154;-65
2021/12/26 20:06:45;;;;;;;13.00;6.60;;;;;4.10;96986.20;;;;108826;1277;41624;-63
2021/12/26 20:09:16;;;;;;;11.80;5.90;;;;;4.10;96985.60;;;;108617;1276;41284;-69
2021/12/26 20:11:46;;;;;;;13.30;5.80;;;;;4.10;96991.00;;;;108810;1276;41226;-69
2021/12/26 20:14:15;;;;;;;12.10;6.00;;;;;4.10;96989.20;;;;108850;1273;41871;-66
2021/12/26 20:16:44;;;;;;;12.50;6.20;;;;;4.10;96988.80;;;;108786;1275;41367;-70
2021/12/26 20:19:17;;;;;;;12.60;6.40;;;;;4.20;96994.80;;;;108682;1277;41617;-71
2021/12/26 20:21:50;;;;;;;12.30;6.10;;;;;4.20;96984.60;;;;108648;1276;41796;-66
2021/12/26 20:24:22;;;;;;;10.70;5.20;;;;;4.20;96987.00;;;;108838;1277;41168;-64
2021/12/26 20:26:54;;;;;;;13.00;6.30;;;;;4.20;96985.20;;;;108675;1276;41203;-70
2021/12/26 20:29:23;;;;;;;14.40;6.70;;;;;4.26;96989.40;;;;108775;1276;41513;-68
2021/12/26 20:31:52;;;;;;;12.80;6.20;;;;;4.30;96999.40;;;;108718;1277;41254;-72
2021/12/26 20:34:22;;;;;;;12.00;6.20;;;;;4.30;96990.60;;;;108759;1272;41611;-71
2021/12/26 20:36:52;;;;;;;12.30;6.10;;;;;4.30;96993.60;;;;108686;1276;41153;-65
2021/12/26 20:39:27;;;;;;;12.90;5.70;;;;;4.30;96990.40;;;;108725;1272;42270;-71
2021/12/26 20:41:56;;;;;;;12.20;5.40;;;;;4.30;96988.00;;;;108904;1276;41179;-71
2021/12/26 20:44:25;;;;;;;12.10;5.80;;;;;4.30;96990.00;;;;108819;1277;41154;-72
2021/12/26 20:46:54;;;;;;;11.00;5.40;;;;;4.30;96993.00;;;;108700;1277;41370;-71
2021/12/26 20:49:23;;;;;;;11.90;5.80;;;;;4.30;96988.60;;;;108826;1276;41151;-67
2021/12/26 20:51:52;;;;;;;11.60;5.50;;;;;4.32;96994.60;;;;108811;1277;41247;-72
2021/12/26 20:54:23;;;;;;;15.80;7.20;;;;;4.32;96994.80;;;;108833;1275;41158;-72
2021/12/26 20:56:52;;;;;;;20.20;9.50;;;;;4.40;96990.20;;;;108882;1275;41246;-71
2021/12/26 20:59:23;;;;;;;19.80;8.90;;;;;4.40;96992.00;;;;108816;1277;41161;-70
2021/12/26 21:01:57;;;;;;;20.80;9.00;;;;;4.40;96988.20;;;;108790;1277;41479;-73
2021/12/26 21:04:26;;;;;;;16.10;8.40;;;;;4.40;96988.80;;;;108886;1277;41803;-73
2021/12/26 21:06:56;;;;;;;18.00;8.40;;;;;4.40;96991.40;;;;108949;1275;42545;-72
2021/12/26 21:09:25;;;;;;;18.00;8.20;;;;;4.40;96990.80;;;;108848;1276;41622;-73
2021/12/26 21:11:54;;;;;;;16.00;7.70;;;;;4.40;96991.40;;;;108760;1277;41261;-72
2021/12/26 21:14:23;;;;;;;14.60;7.20;;;;;4.40;96992.80;;;;108746;1276;41638;-67
2021/12/26 21:16:54;;;;;;;15.20;7.80;;;;;4.40;96997.00;;;;108830;1277;41474;-71
2021/12/26 21:19:24;;;;;;;;;;;;;4.40;96995.20;;;;108902;1275;41161;-72
2021/12/26 21:21:53;;;;;;;20.00;10.40;;;;;4.40;97008.20;;;;108797;1274;41187;-64
2021/12/26 21:24:24;;;;;;;23.00;11.30;;;;;4.30;97015.40;;;;108710;1276;41154;-65
2021/12/26 21:26:52;;;;;;;17.50;8.80;;;;;4.30;97015.80;;;;108751;1273;41151;-69
2021/12/26 21:29:22;;;;;;;12.20;6.60;;;;;4.22;97018.00;;;;108784;1275;41253;-73
2021/12/26 21:31:51;;;;;;;14.20;7.20;;;;;4.30;97015.80;;;;108781;1276;41888;-70
2021/12/26 21:34:20;;;;;;;13.70;7.00;;;;;4.30;97008.60;;;;108778;1275;41208;-70
2021/12/26 21:36:49;;;;;;;12.00;5.70;;;;;4.30;97007.80;;;;108534;1276;41764;-72
2021/12/26 21:39:21;;;;;;;12.90;6.30;;;;;4.30;97005.80;;;;108745;1276;41143;-70
2021/12/26 21:41:51;;;;;;;12.00;6.00;;;;;4.30;97002.80;;;;108765;1276;41819;-71
2021/12/26 21:44:24;;;;;;;13.90;6.30;;;;;4.30;97004.20;;;;108660;1276;41149;-67
2021/12/26 21:46:54;;;;;;;12.00;6.00;;;;;4.30;97002.80;;;;109056;1276;41174;-65
2021/12/26 21:49:27;;;;;;;16.50;7.10;;;;;4.28;96995.80;;;;108375;1278;41161;-75
2021/12/26 21:51:57;;;;;;;14.70;7.30;;;;;4.30;97006.00;;;;108743;1276;42365;-65
2021/12/26 21:54:26;;;;;;;15.10;7.10;;;;;4.20;97002.80;;;;108700;1276;41765;-70
2021/12/26 21:57:02;;;;;;;15.10;7.20;;;;;4.20;97002.00;;;;108711;1276;41122;-65
2021/12/26 21:59:33;;;;;;;14.60;7.30;;;;;4.20;97011.20;;;;108585;1277;42095;-72
2021/12/26 22:02:05;;;;;;;12.10;6.20;;;;;4.20;97009.80;;;;108605;1276;41159;-66
2021/12/26 22:04:35;;;;;;;13.60;6.20;;;;;4.20;97016.20;;;;108722;1276;41186;-65
2021/12/26 22:07:05;;;;;;;12.90;6.00;;;;;4.12;97016.40;;;;108689;1276;41597;-71
2021/12/26 22:09:34;;;;;;;13.80;6.50;;;;;4.10;97016.00;;;;108852;1276;41470;-71
2021/12/26 22:12:04;;;;;;;13.40;6.80;;;;;4.10;97010.20;;;;108681;1277;41992;-70
2021/12/26 22:14:34;;;;;;;12.70;6.30;;;;;4.10;97008.20;;;;108744;1277;41150;-67
2021/12/26 22:17:04;;;;;;;11.80;5.70;;;;;4.06;97003.40;;;;108609;1277;41540;-66
2021/12/26 22:19:33;;;;;;;11.00;5.30;;;;;4.00;97005.00;;;;108762;1276;42016;-73
2021/12/26 22:22:03;;;;;;;12.80;5.30;;;;;4.00;96997.40;;;;108736;1276;42508;-72
2021/12/26 22:24:32;;;;;;;12.60;6.40;;;;;4.00;96997.00;;;;108801;1275;41260;-68
2021/12/26 22:27:02;;;;;;;15.30;7.10;;;;;4.00;97002.00;;;;108649;1276;41322;-69
2021/12/26 22:29:31;;;;;;;14.30;6.50;;;;;4.00;97001.60;;;;108674;1277;41134;-74
2021/12/26 22:32:02;;;;;;;11.80;5.50;;;;;4.10;97004.00;;;;108858;1277;41152;-67
2021/12/26 22:34:35;;;;;;;10.90;5.20;;;;;4.10;96996.40;;;;108715;1276;41366;-73
2021/12/26 22:37:06;;;;;;;10.20;5.10;;;;;4.10;96996.60;;;;108733;1275;41142;-66
2021/12/26 22:39:37;;;;;;;11.30;5.60;;;;;4.12;96994.00;;;;108696;1277;41889;-65
2021/12/26 22:42:08;;;;;;;;;;;;;4.18;96999.00;;;;108550;1277;41159;-68